Time;durP1;ratioP1;P1;durP2;ratioP2;P2;SDS_P1;SDS_P2;PMS_P1;PMS_P2;Temp;Humidity;BMP_temperature;BMP_pressure;BME280_temperature;BME280_humidity;BME280_pressure;Samples;Min_cycle;Max_cycle;Signal;HPM_P1;HPM_P2
2022/11/11 00:00:45;;;;;;;33.45;13.07;;;;;;;9.04;100.00;102886.31;5204294;28;20033;-71
2022/11/11 00:03:16;;;;;;;31.20;11.52;;;;;;;9.07;100.00;102894.09;5204370;28;20033;-71
2022/11/11 00:05:46;;;;;;;29.85;12.38;;;;;;;9.10;100.00;102898.41;5204456;28;20124;-71
2022/11/11 00:08:17;;;;;;;27.60;11.65;;;;;;;9.10;100.00;102898.41;5203780;28;20033;-71
2022/11/11 00:10:47;;;;;;;25.10;11.88;;;;;;;9.10;100.00;102899.25;5203936;28;20112;-71
2022/11/11 00:13:18;;;;;;;26.83;11.57;;;;;;;9.10;100.00;102918.00;5204287;28;20026;-72
2022/11/11 00:15:48;;;;;;;31.88;11.77;;;;;;;9.12;100.00;102902.69;5204480;28;20017;-71
2022/11/11 00:27:13;;;;;;;23.70;10.73;;;;;;;9.09;100.00;102913.63;5183521;28;20113;-70
2022/11/11 00:29:46;;;;;;;20.58;10.82;;;;;;;9.04;100.00;102908.56;5201622;28;20025;-70
2022/11/11 00:32:22;;;;;;;21.55;10.50;;;;;;;9.01;100.00;102913.28;5203931;28;20071;-70
2022/11/11 00:37:47;;;;;;;31.20;11.65;;;;;;;8.93;100.00;102902.22;5203482;28;20036;-71
2022/11/11 00:40:17;;;;;;;24.50;10.48;;;;;;;8.87;100.00;102911.53;5203716;28;20021;-70
2022/11/11 00:42:48;;;;;;;26.60;10.90;;;;;;;8.88;100.00;102917.75;5203833;28;20414;-71
2022/11/11 00:45:18;;;;;;;26.70;11.57;;;;;;;8.88;100.00;102910.56;5203881;28;20049;-71
2022/11/11 00:53:29;;;;;;;25.95;12.18;;;;;;;8.90;100.00;102918.53;5203903;28;20021;-70
2022/11/11 00:55:59;;;;;;;25.45;11.57;;;;;;;8.89;100.00;102915.00;5203541;28;20021;-71
2022/11/11 00:58:30;;;;;;;28.33;12.65;;;;;;;8.88;100.00;102926.63;5202935;28;20025;-71
2022/11/11 01:01:00;;;;;;;25.55;11.35;;;;;;;8.92;100.00;102925.47;5203764;28;20487;-71
2022/11/11 01:03:31;;;;;;;30.48;11.48;;;;;;;8.93;100.00;102923.66;5203797;28;20406;-71
2022/11/11 01:06:02;;;;;;;26.35;11.25;;;;;;;8.93;100.00;102919.16;5203686;28;20467;-71
2022/11/11 01:08:33;;;;;;;23.23;11.15;;;;;;;8.97;100.00;102919.81;5203138;28;20021;-71
2022/11/11 01:11:10;;;;;;;23.73;9.90;;;;;;;9.00;100.00;102919.59;5203293;28;20417;-70
2022/11/11 01:13:41;;;;;;;24.10;9.88;;;;;;;9.00;100.00;102925.81;5203641;28;20060;-69
2022/11/11 01:16:18;;;;;;;24.38;10.82;;;;;;;8.99;100.00;102913.41;5203702;28;20034;-71
2022/11/11 01:18:50;;;;;;;32.45;11.52;;;;;;;8.99;100.00;102908.03;5190598;28;20063;-70
2022/11/11 01:21:23;;;;;;;31.52;10.93;;;;;;;8.98;100.00;102914.34;5204001;28;20078;-69
2022/11/11 01:23:53;;;;;;;27.35;10.00;;;;;;;8.96;100.00;102918.94;5203759;28;20471;-70
2022/11/11 01:26:25;;;;;;;20.85;9.65;;;;;;;9.00;100.00;102920.47;5187132;28;20112;-70
2022/11/11 01:28:56;;;;;;;24.48;10.20;;;;;;;9.02;100.00;102915.00;5194634;28;20372;-70
2022/11/11 01:31:27;;;;;;;24.10;9.95;;;;;;;8.98;100.00;102914.34;5202983;28;20370;-70
2022/11/11 01:33:57;;;;;;;21.33;9.32;;;;;;;8.98;100.00;102914.34;5203024;28;20204;-71
2022/11/11 01:36:28;;;;;;;18.55;9.23;;;;;;;8.98;100.00;102911.66;5202033;28;20064;-71
2022/11/11 01:38:59;;;;;;;26.77;10.57;;;;;;;8.94;100.00;102917.34;5202850;28;20079;-71
2022/11/11 01:41:33;;;;;;;23.25;9.02;;;;;;;8.91;100.00;102923.75;5203323;28;20491;-71
2022/11/11 01:44:09;;;;;;;19.00;9.15;;;;;;;8.88;100.00;102928.44;5203082;28;20026;-73
2022/11/11 01:46:49;;;;;;;18.98;9.27;;;;;;;8.85;100.00;102926.00;5203542;28;20018;-71
2022/11/11 01:49:44;;;;;;;19.50;8.77;;;;;;;8.81;100.00;102925.34;5206947;28;20434;-71
2022/11/11 01:52:26;;;;;;;22.33;9.40;;;;;;;8.81;100.00;102923.53;5206740;28;20438;-71
2022/11/11 01:55:19;;;;;;;19.52;9.02;;;;;;;8.83;100.00;102926.09;5206740;28;20033;-71
2022/11/11 01:57:58;;;;;;;19.42;8.70;;;;;;;8.76;100.00;102925.66;5206574;28;20060;-71
2022/11/11 02:00:29;;;;;;;25.02;9.48;;;;;;;8.79;100.00;102924.59;5206555;28;20022;-71
2022/11/11 02:03:05;;;;;;;21.92;8.55;;;;;;;8.75;100.00;102915.91;5207098;28;20548;-71
2022/11/11 02:05:42;;;;;;;26.65;9.13;;;;;;;8.73;100.00;102927.69;5205814;28;20478;-71
2022/11/11 02:08:42;;;;;;;17.98;9.25;;;;;;;8.69;100.00;102927.03;5206350;28;20062;-71
2022/11/11 02:14:35;;;;;;;22.80;9.63;;;;;;;8.62;100.00;102920.38;5206933;28;20071;-72
2022/11/11 02:17:15;;;;;;;19.40;9.68;;;;;;;8.61;100.00;102918.66;5206105;28;20375;-72
2022/11/11 02:19:52;;;;;;;21.75;10.15;;;;;;;8.61;100.00;102924.00;5206129;28;20020;-72
2022/11/11 02:22:31;;;;;;;19.98;9.85;;;;;;;8.61;100.00;102924.00;5206645;28;20036;-72
2022/11/11 02:25:05;;;;;;;24.30;9.75;;;;;;;8.61;100.00;102912.47;5205163;28;20033;-72
2022/11/11 02:27:40;;;;;;;22.25;10.18;;;;;;;8.56;100.00;102910.94;5192581;28;20026;-72
2022/11/11 02:30:14;;;;;;;21.63;9.77;;;;;;;8.59;100.00;102906.38;5206287;28;20410;-71
2022/11/11 02:32:48;;;;;;;19.85;9.05;;;;;;;8.61;100.00;102907.09;5206424;28;20626;-72
2022/11/11 02:35:33;;;;;;;23.80;9.93;;;;;;;8.57;100.00;102907.31;5206787;28;20026;-72
2022/11/11 02:38:12;;;;;;;27.00;9.70;;;;;;;8.59;100.00;102903.69;5205834;28;20017;-72
2022/11/11 02:43:35;;;;;;;24.48;9.65;;;;;;;8.61;100.00;102901.75;5206345;28;20033;-72
2022/11/11 02:46:06;;;;;;;24.35;10.82;;;;;;;8.61;100.00;102894.59;5206229;28;20061;-72
2022/11/11 02:48:37;;;;;;;25.25;9.45;;;;;;;8.63;100.00;102891.78;5205741;28;20029;-73
2022/11/11 02:51:08;;;;;;;23.85;9.82;;;;;;;8.63;100.00;102891.78;5205893;28;20179;-72
2022/11/11 02:53:38;;;;;;;24.20;10.27;;;;;;;8.68;100.00;102895.88;5204909;28;20065;-72
2022/11/11 02:56:09;;;;;;;21.83;9.95;;;;;;;8.67;100.00;102893.31;5206348;28;20045;-73
2022/11/11 02:58:40;;;;;;;24.92;9.68;;;;;;;8.66;100.00;102895.13;5205531;28;20025;-72
2022/11/11 03:01:10;;;;;;;19.42;10.30;;;;;;;8.64;100.00;102910.44;5204618;28;20382;-72
2022/11/11 03:03:41;;;;;;;29.33;10.10;;;;;;;8.68;100.00;102898.53;5205950;28;20274;-72
2022/11/11 03:06:12;;;;;;;20.02;9.63;;;;;;;8.70;100.00;102903.81;5205554;28;20534;-73
2022/11/11 03:08:43;;;;;;;22.90;9.85;;;;;;;8.70;100.00;102903.81;5204975;28;20021;-72
2022/11/11 03:11:14;;;;;;;19.30;9.85;;;;;;;8.69;100.00;102900.28;5205589;28;20017;-72
2022/11/11 03:13:49;;;;;;;23.98;10.77;;;;;;;8.66;100.00;102903.16;5205475;28;20017;-72
2022/11/11 03:19:14;;;;;;;24.52;10.23;;;;;;;8.62;100.00;102893.63;5204976;28;19909;-71
2022/11/11 03:21:44;;;;;;;35.42;11.05;;;;;;;8.62;100.00;102892.75;5205170;28;20491;-71
2022/11/11 03:24:15;;;;;;;34.22;11.05;;;;;;;8.63;100.00;102889.13;5204909;28;20413;-71
2022/11/11 03:26:46;;;;;;;27.90;10.35;;;;;;;8.63;100.00;102892.66;5186860;28;20022;-71
2022/11/11 03:29:16;;;;;;;20.15;10.48;;;;;;;8.64;100.00;102902.41;5199129;28;20356;-71
2022/11/11 03:31:47;;;;;;;25.02;11.23;;;;;;;8.64;100.00;102901.56;5205227;28;20029;-71
2022/11/11 03:34:17;;;;;;;26.02;10.68;;;;;;;8.62;100.00;102893.63;5205181;28;20033;-72
2022/11/11 03:39:36;;;;;;;26.75;10.52;;;;;;;8.62;100.00;102898.13;5204860;28;20045;-72
2022/11/11 03:42:07;;;;;;;27.58;11.68;;;;;;;8.57;100.00;102888.56;5204993;28;20067;-72
2022/11/11 03:44:37;;;;;;;28.50;11.40;;;;;;;8.57;100.00;102895.75;5204910;28;20017;-72
2022/11/11 03:47:08;;;;;;;27.08;11.57;;;;;;;8.55;100.00;102887.84;5204623;28;20057;-72
2022/11/11 03:49:38;;;;;;;24.02;11.32;;;;;;;8.54;100.00;102896.81;5205170;28;20486;-73
2022/11/11 03:52:09;;;;;;;30.23;11.70;;;;;;;8.52;100.00;102890.69;5204783;28;20433;-74
2022/11/11 03:54:39;;;;;;;26.85;11.35;;;;;;;8.54;100.00;102896.81;5195650;28;20125;-73
2022/11/11 03:59:59;;;;;;;30.77;11.90;;;;;;;8.55;100.00;102908.38;5204285;28;20048;-73
2022/11/11 04:11:10;;;;;;;25.88;11.68;;;;;;;8.60;100.00;102900.03;5204317;28;20029;-70
2022/11/11 04:16:32;;;;;;;24.83;11.05;;;;;;;8.62;100.00;102908.81;5204653;28;20061;-71
2022/11/11 04:21:51;;;;;;;20.40;10.60;;;;;;;8.61;100.00;102913.31;5204463;28;20397;-71
2022/11/11 04:27:13;;;;;;;23.02;10.77;;;;;;;8.57;100.00;102912.66;5183393;28;20452;-71
2022/11/11 04:29:46;;;;;;;25.13;9.88;;;;;;;8.51;100.00;102905.03;5201839;28;20021;-72
2022/11/11 04:32:39;;;;;;;22.38;10.30;;;;;;;8.53;100.00;102915.63;5203902;28;20089;-72
2022/11/11 04:35:12;;;;;;;27.55;9.95;;;;;;;8.55;100.00;102909.22;5193012;28;20033;-72
2022/11/11 04:37:50;;;;;;;20.42;9.43;;;;;;;8.52;100.00;102909.44;5203496;28;20052;-71
2022/11/11 04:43:09;;;;;;;21.40;9.85;;;;;;;8.51;100.00;102907.72;5204159;28;20510;-72
2022/11/11 04:45:40;;;;;;;22.85;10.18;;;;;;;8.47;100.00;102900.00;5203836;28;20057;-71
2022/11/11 04:48:12;;;;;;;26.42;11.13;;;;;;;8.42;100.00;102897.63;5203625;28;20076;-72
2022/11/11 04:50:43;;;;;;;19.00;9.77;;;;;;;8.38;100.00;102901.47;5204106;28;20486;-71
2022/11/11 04:53:14;;;;;;;24.17;10.93;;;;;;;8.33;100.00;102900.88;5204086;28;20032;-71
2022/11/11 04:58:34;;;;;;;25.27;10.63;;;;;;;8.19;100.00;102900.97;5203715;28;20030;-70
2022/11/11 05:01:05;;;;;;;25.58;10.27;;;;;;;8.12;100.00;102896.94;5203774;28;20024;-70
2022/11/11 05:03:35;;;;;;;26.13;11.02;;;;;;;8.04;100.00;102895.66;5190684;28;20191;-71
2022/11/11 05:08:55;;;;;;;30.05;10.25;;;;;;;7.89;100.00;102904.66;5203780;28;20379;-71
2022/11/11 05:11:34;;;;;;;24.98;10.60;;;;;;;7.86;100.00;102910.19;5204063;28;20017;-71
2022/11/11 05:22:37;;;;;;;21.58;9.32;;;;;;;7.76;100.00;102914.41;5206161;28;20116;-71
2022/11/11 05:25:25;;;;;;;21.23;10.05;;;;;;;7.68;100.00;102916.69;5201744;28;20026;-71
2022/11/11 05:27:56;;;;;;;19.92;10.18;;;;;;;7.59;100.00;102919.97;5190354;28;20033;-71
2022/11/11 05:30:27;;;;;;;22.00;10.70;;;;;;;7.50;100.00;102924.91;5207946;28;20022;-70
2022/11/11 05:32:57;;;;;;;25.48;11.07;;;;;;;7.44;100.00;102916.44;5207638;28;20394;-70
2022/11/11 05:35:28;;;;;;;23.63;9.85;;;;;;;7.36;100.00;102922.25;5208460;28;20030;-69
2022/11/11 05:38:20;;;;;;;25.27;10.48;;;;;;;7.27;100.00;102923.66;5207085;28;20044;-69
2022/11/11 05:40:51;;;;;;;27.23;11.23;;;;;;;7.19;100.00;102927.78;5207601;28;20483;-70
2022/11/11 05:43:21;;;;;;;29.63;12.77;;;;;;;7.13;100.00;102930.78;5207667;28;20072;-70
2022/11/11 05:45:52;;;;;;;20.80;10.32;;;;;;;7.05;100.00;102935.75;5207187;28;20425;-70
2022/11/11 05:48:22;;;;;;;25.58;10.90;;;;;;;7.00;100.00;102934.22;5206625;28;20029;-70
2022/11/11 05:50:53;;;;;;;28.95;10.88;;;;;;;6.94;100.00;102934.59;5207537;28;20029;-70
2022/11/11 05:53:23;;;;;;;41.90;13.68;;;;;;;6.89;100.00;102926.00;5207328;28;20064;-70
2022/11/11 05:55:54;;;;;;;30.65;12.75;;;;;;;6.87;100.00;102935.88;5207075;28;20471;-71
2022/11/11 05:58:24;;;;;;;31.58;13.35;;;;;;;6.86;100.00;102931.50;5206345;28;20036;-69
2022/11/11 06:00:54;;;;;;;37.08;13.50;;;;;;;6.84;100.00;102935.22;5206646;28;20033;-70
2022/11/11 06:03:25;;;;;;;34.92;15.00;;;;;;;6.80;100.00;102928.34;5207106;28;20025;-70
2022/11/11 06:05:55;;;;;;;36.55;14.32;;;;;;;6.76;100.00;102927.66;5207120;28;20112;-71
2022/11/11 06:08:26;;;;;;;33.95;14.32;;;;;;;6.77;100.00;102941.88;5206330;28;20025;-71
2022/11/11 06:10:57;;;;;;;35.03;14.98;;;;;;;6.73;100.00;102935.88;5206698;28;20018;-71
2022/11/11 06:13:27;;;;;;;34.00;14.00;;;;;;;6.67;100.00;102936.22;5206580;28;20029;-71
2022/11/11 06:15:59;;;;;;;37.63;14.70;;;;;;;6.63;100.00;102943.56;5206828;28;20531;-71
2022/11/11 06:18:29;;;;;;;39.33;15.45;;;;;;;6.61;100.00;102945.44;5205825;28;20025;-70
2022/11/11 06:21:00;;;;;;;34.22;14.07;;;;;;;6.61;100.00;102945.44;5206660;28;20037;-70
2022/11/11 06:23:30;;;;;;;33.95;15.63;;;;;;;6.61;100.00;102948.09;5206465;28;20022;-72
2022/11/11 06:26:14;;;;;;;36.53;15.32;;;;;;;6.58;100.00;102948.28;5202088;28;20467;-71
2022/11/11 06:28:50;;;;;;;40.35;15.82;;;;;;;6.60;100.00;102953.53;5194688;28;20049;-71
2022/11/11 06:31:23;;;;;;;42.55;15.93;;;;;;;6.57;100.00;102953.69;5206068;28;20533;-71
2022/11/11 06:33:54;;;;;;;36.17;14.48;;;;;;;6.53;100.00;102946.84;5206095;28;20475;-71
2022/11/11 06:36:24;;;;;;;47.55;16.77;;;;;;;6.47;100.00;102956.88;5206245;28;20025;-71
2022/11/11 06:38:55;;;;;;;29.33;13.77;;;;;;;6.44;100.00;102957.09;5205626;28;20082;-71
2022/11/11 06:41:26;;;;;;;35.15;15.93;;;;;;;6.45;100.00;102958.78;5206343;28;20413;-71
2022/11/11 06:43:57;;;;;;;38.85;15.23;;;;;;;6.45;100.00;102955.28;5206178;28;20025;-72
2022/11/11 06:46:27;;;;;;;37.88;15.48;;;;;;;6.45;100.00;102958.78;5205579;28;20372;-71
2022/11/11 06:48:58;;;;;;;43.03;15.25;;;;;;;6.45;100.00;102964.13;5205611;28;20059;-71
2022/11/11 06:51:28;;;;;;;35.55;15.07;;;;;;;6.42;100.00;102966.09;5206241;28;20040;-71
2022/11/11 06:53:59;;;;;;;38.78;16.17;;;;;;;6.41;100.00;102972.38;5206077;28;20048;-71
2022/11/11 06:56:30;;;;;;;52.10;16.98;;;;;;;6.38;100.00;102965.44;5206004;28;20108;-72
2022/11/11 06:59:00;;;;;;;42.35;15.77;;;;;;;6.34;100.00;102968.38;5204710;28;20104;-72
2022/11/11 07:01:31;;;;;;;35.58;15.48;;;;;;;6.31;100.00;102973.84;5205820;28;20529;-72
2022/11/11 07:04:01;;;;;;;49.25;16.77;;;;;;;6.30;100.00;102973.00;5205855;28;20032;-72
2022/11/11 07:06:32;;;;;;;38.92;15.43;;;;;;;6.28;100.00;102974.91;5204127;28;20052;-72
2022/11/11 07:09:02;;;;;;;45.22;18.63;;;;;;;6.27;100.00;102978.50;5204971;28;20371;-72
2022/11/11 07:11:33;;;;;;;46.28;18.33;;;;;;;6.28;100.00;102977.56;5205080;28;20132;-72
2022/11/11 07:14:03;;;;;;;41.70;17.00;;;;;;;6.30;100.00;102981.00;5205210;28;20025;-72
2022/11/11 07:16:34;;;;;;;35.60;15.23;;;;;;;6.33;100.00;102987.97;5205084;28;20478;-72
2022/11/11 07:19:04;;;;;;;33.42;14.27;;;;;;;6.35;100.00;102986.94;5204706;28;20029;-72
2022/11/11 07:21:34;;;;;;;41.25;15.13;;;;;;;6.39;100.00;102984.97;5191804;28;20025;-72
2022/11/11 07:24:05;;;;;;;30.88;14.82;;;;;;;6.41;100.00;102986.56;5204576;28;20033;-72
2022/11/11 07:26:36;;;;;;;37.60;13.85;;;;;;;6.44;100.00;102990.91;5186844;28;20040;-72
2022/11/11 07:29:06;;;;;;;41.47;14.38;;;;;;;6.45;100.00;102993.47;5197227;28;20028;-72
2022/11/11 07:31:37;;;;;;;35.88;15.05;;;;;;;6.51;100.00;102994.91;5203355;28;20029;-72
2022/11/11 07:34:08;;;;;;;31.58;14.48;;;;;;;6.55;100.00;102999.13;5204897;28;20076;-72
2022/11/11 07:36:38;;;;;;;33.33;14.73;;;;;;;6.62;100.00;102999.63;5204414;28;20053;-72
2022/11/11 07:39:09;;;;;;;38.40;13.88;;;;;;;6.74;100.00;103005.13;5204125;28;20402;-72
2022/11/11 07:41:40;;;;;;;26.60;12.70;;;;;;;6.90;100.00;102999.75;5205136;28;20112;-72
2022/11/11 07:44:10;;;;;;;33.67;13.00;;;;;;;7.00;100.00;103011.59;5204194;28;20018;-72
2022/11/11 07:46:40;;;;;;;30.17;12.52;;;;;;;7.12;100.00;103010.00;5204410;28;20124;-71
2022/11/11 07:49:11;;;;;;;28.00;11.82;;;;;;;7.27;100.00;103005.56;5203974;28;20448;-72
2022/11/11 07:51:41;;;;;;;28.45;12.20;;;;;;;7.42;100.00;103006.47;5204986;28;20140;-71
2022/11/11 07:54:12;;;;;;;26.92;11.65;;;;;;;7.41;100.00;103015.44;5204846;28;20135;-72
2022/11/11 07:56:42;;;;;;;23.95;11.20;;;;;;;7.41;100.00;103015.44;5204490;28;20029;-72
2022/11/11 07:59:13;;;;;;;30.23;12.45;;;;;;;7.50;100.00;103018.41;5202628;28;20056;-72
2022/11/11 08:01:44;;;;;;;26.65;12.52;;;;;;;7.56;100.00;103017.16;5204098;28;20391;-72
2022/11/11 08:04:15;;;;;;;25.70;11.27;;;;;;;7.53;100.00;103017.38;5203731;28;20025;-72
2022/11/11 08:06:45;;;;;;;27.98;12.38;;;;;;;7.59;100.00;103016.13;5203023;28;20084;-73
2022/11/11 08:09:16;;;;;;;29.05;12.20;;;;;;;7.59;100.00;103014.31;5203110;28;20386;-72
2022/11/11 08:14:35;;;;;;;27.00;10.88;;;;;;;7.76;100.00;103015.94;5204463;28;20439;-72
2022/11/11 08:17:06;;;;;;;26.65;11.25;;;;;;;7.89;100.00;103016.06;5203325;28;20147;-72
2022/11/11 08:19:36;;;;;;;20.58;10.32;;;;;;;8.06;100.00;103021.19;5203979;28;20395;-72
2022/11/11 08:22:07;;;;;;;23.10;10.30;;;;;;;8.14;100.00;103023.38;5204619;28;20049;-72
2022/11/11 08:24:37;;;;;;;24.48;9.60;;;;;;;8.34;100.00;103028.31;5202176;28;20471;-72
2022/11/11 08:27:08;;;;;;;23.05;10.32;;;;;;;8.52;100.00;103010.22;5192907;28;20051;-72
2022/11/11 08:29:39;;;;;;;25.60;10.23;;;;;;;8.74;100.00;103023.06;5203863;28;20025;-72
2022/11/11 08:32:10;;;;;;;21.42;9.65;;;;;;;9.05;100.00;103030.78;5202434;28;20532;-73
2022/11/11 08:34:40;;;;;;;21.48;9.25;;;;;;;9.20;100.00;103033.38;5203591;28;20024;-73
2022/11/11 08:37:11;;;;;;;16.13;8.95;;;;;;;9.45;100.00;103030.75;5203689;28;20456;-73
2022/11/11 08:39:41;;;;;;;17.83;8.38;;;;;;;9.65;100.00;103029.34;5203611;28;20025;-72
2022/11/11 08:42:12;;;;;;;17.58;9.45;;;;;;;9.80;100.00;103022.06;5203970;28;20017;-73
2022/11/11 08:44:43;;;;;;;18.20;9.57;;;;;;;10.19;100.00;103012.13;5202578;28;20107;-72
2022/11/11 08:47:13;;;;;;;17.02;7.43;;;;;;;10.45;100.00;103016.50;5202844;28;20418;-73
2022/11/11 08:49:44;;;;;;;16.17;8.43;;;;;;;10.69;100.00;103024.53;5203903;28;20022;-73
2022/11/11 08:52:15;;;;;;;15.18;8.20;;;;;;;10.84;100.00;103030.59;5203849;28;20509;-73
2022/11/11 08:54:45;;;;;;;15.57;7.78;;;;;;;11.10;100.00;103031.34;5204112;28;20021;-72
2022/11/11 08:57:16;;;;;;;13.95;7.65;;;;;;;11.43;100.00;103030.56;5206809;28;20018;-72
2022/11/11 08:59:46;;;;;;;15.63;8.35;;;;;;;11.60;100.00;103035.50;5207587;28;20026;-73
2022/11/11 09:02:17;;;;;;;11.30;6.63;;;;;;;11.98;100.00;103034.31;5207733;28;20028;-73
2022/11/11 09:04:47;;;;;;;12.98;7.55;;;;;;;11.91;100.00;103033.97;5207884;28;20495;-73
2022/11/11 09:07:18;;;;;;;17.63;7.70;;;;;;;12.31;100.00;103028.06;5207145;28;20051;-73
2022/11/11 09:09:49;;;;;;;12.52;6.68;;;;;;;12.27;100.00;103034.69;5207512;28;20010;-73
2022/11/11 09:12:20;;;;;;;11.80;6.72;;;;;;;12.59;100.00;103026.66;5207543;28;20025;-72
2022/11/11 09:14:50;;;;;;;11.43;6.70;;;;;;;12.35;100.00;103043.00;5207534;28;20032;-72
2022/11/11 09:17:21;;;;;;;12.23;6.78;;;;;;;11.98;100.00;103034.31;5207236;28;20540;-73
2022/11/11 09:19:51;;;;;;;14.60;6.63;;;;;;;12.17;100.00;103034.56;5207309;28;20021;-73
2022/11/11 09:22:22;;;;;;;9.70;6.45;;;;;;;12.42;100.00;103027.19;5207767;28;20055;-73
2022/11/11 09:24:53;;;;;;;11.35;7.03;;;;;;;12.51;100.00;103025.59;5202837;28;20116;-72
2022/11/11 09:27:23;;;;;;;12.63;6.60;;;;;;;12.86;100.00;103044.22;5198896;28;20483;-73
2022/11/11 09:29:54;;;;;;;12.30;6.18;;;;;;;12.96;100.00;103035.25;5207262;28;20104;-73
2022/11/11 09:32:24;;;;;;;10.15;5.57;;;;;;;13.03;100.00;103040.97;5206872;28;20475;-73
2022/11/11 09:34:55;;;;;;;10.95;6.07;;;;;;;12.89;100.00;103049.34;5207535;28;20494;-73
2022/11/11 09:37:26;;;;;;;11.65;6.03;;;;;;;13.02;100.00;103047.34;5206123;28;20037;-73
2022/11/11 09:39:57;;;;;;;11.48;6.10;;;;;;;13.08;100.00;103049.50;5207020;28;20082;-73
2022/11/11 09:42:48;;;;;;;10.75;6.00;;;;;;;12.63;100.00;103051.50;5207368;28;20108;-73
2022/11/11 09:45:48;;;;;;;15.10;5.95;;;;;;;12.54;100.00;103061.19;5207312;28;20107;-73
2022/11/11 09:48:45;;;;;;;12.45;5.50;;;;;;;12.39;100.00;103057.03;5197036;28;20025;-72
2022/11/11 09:51:22;;;;;;;11.32;5.45;;;;;;;12.48;100.00;103050.91;5194868;28;20037;-73
2022/11/11 09:53:59;;;;;;;8.27;5.38;;;;;;;12.42;100.00;103054.13;5207378;28;20033;-73
2022/11/11 09:56:32;;;;;;;14.02;6.13;;;;;;;12.46;100.00;103044.81;5207601;28;20129;-72
2022/11/11 09:59:15;;;;;;;9.88;5.07;;;;;;;12.43;100.00;103047.75;5208286;28;20398;-73
2022/11/11 10:01:52;;;;;;;9.98;5.90;;;;;;;12.34;100.00;103048.47;5206863;28;20022;-72
2022/11/11 10:04:50;;;;;;;8.65;5.00;;;;;;;12.42;100.00;103057.66;5206708;28;20029;-73
2022/11/11 10:07:44;;;;;;;8.77;5.03;;;;;;;12.32;100.00;103047.78;5205671;28;20067;-72
2022/11/11 10:10:44;;;;;;;10.90;5.20;;;;;;;12.10;100.00;103045.97;5207775;28;20072;-72
2022/11/11 10:13:18;;;;;;;8.50;4.78;;;;;;;11.96;100.00;103060.50;5207181;28;20028;-73
2022/11/11 10:16:16;;;;;;;14.02;5.20;;;;;;;11.97;100.00;103054.13;5206648;28;20082;-73
2022/11/11 10:19:00;;;;;;;8.80;4.35;;;;;;;12.08;100.00;103051.44;5193491;28;20025;-73
2022/11/11 10:21:36;;;;;;;10.30;4.60;;;;;;;12.28;100.00;103049.84;5206160;28;20025;-74
2022/11/11 10:24:14;;;;;;;10.77;4.45;;;;;;;12.29;100.00;103050.69;5206337;28;20108;-74
2022/11/11 10:26:46;;;;;;;9.75;4.63;;;;;;;12.25;100.00;103049.22;5187574;28;20116;-74
2022/11/11 10:29:21;;;;;;;7.88;4.05;;;;;;;12.07;100.00;103056.97;5199572;28;20071;-74
2022/11/11 10:32:04;;;;;;;7.40;4.28;;;;;;;12.14;100.00;103056.31;5205978;28;20036;-74
2022/11/11 10:34:36;;;;;;;7.43;4.22;;;;;;;12.32;100.00;103058.53;5204891;28;20017;-73
2022/11/11 10:37:17;;;;;;;6.78;4.13;;;;;;;12.43;100.00;103053.97;5205588;28;20411;-73
2022/11/11 10:40:10;;;;;;;9.52;3.97;;;;;;;12.58;100.00;103056.41;5205463;28;20079;-74
2022/11/11 10:42:40;;;;;;;7.90;4.07;;;;;;;12.48;100.00;103058.13;5206249;28;20034;-73
2022/11/11 10:45:18;;;;;;;6.72;4.28;;;;;;;12.59;100.00;103052.72;5205918;28;20017;-74
2022/11/11 10:48:05;;;;;;;9.43;3.92;;;;;;;12.63;100.00;103051.50;5205540;28;20261;-73
2022/11/11 10:50:40;;;;;;;7.68;3.50;;;;;;;12.75;100.00;103050.50;5205834;28;20018;-73
2022/11/11 10:53:24;;;;;;;10.23;3.85;;;;;;;12.79;100.00;103045.69;5206227;28;20029;-74
2022/11/11 10:56:27;;;;;;;8.18;3.42;;;;;;;13.12;100.00;103042.03;5205653;28;20160;-73
2022/11/11 10:59:00;;;;;;;5.53;2.85;;;;;;;13.18;100.00;103042.34;5188572;28;20395;-73
2022/11/11 11:01:40;;;;;;;6.00;3.63;;;;;;;13.41;100.00;103040.44;5205354;28;20116;-73
2022/11/11 11:04:36;;;;;;;5.30;2.97;;;;;;;13.48;100.00;103040.75;5193686;28;20120;-73
2022/11/11 11:07:11;;;;;;;4.82;2.80;;;;;;;13.52;100.00;103030.56;5205281;28;20029;-73
2022/11/11 11:09:49;;;;;;;7.05;3.53;;;;;;;13.53;100.00;103030.44;5205402;28;20026;-73
2022/11/11 11:12:27;;;;;;;5.20;3.30;;;;;;;13.46;100.00;103030.09;5205484;28;20071;-73
2022/11/11 11:15:07;;;;;;;4.45;2.53;;;;;;;13.64;100.00;103026.78;5205209;28;20533;-73
2022/11/11 11:18:17;;;;;;;5.57;2.45;;;;;;;13.80;100.00;103029.00;5204651;28;20025;-73
2022/11/11 11:20:56;;;;;;;6.18;2.45;;;;;;;13.91;100.00;103028.94;5151902;28;20120;-73
2022/11/11 11:23:41;;;;;;;4.13;2.40;;;;;;;14.02;100.00;103022.59;5161890;28;20519;-73
2022/11/11 11:26:13;;;;;;;6.10;2.78;;;;;;;14.11;100.00;103017.22;5177247;28;20045;-74
2022/11/11 11:28:53;;;;;;;5.45;2.40;;;;;;;14.08;100.00;103014.78;5193857;28;20025;-73
2022/11/11 11:31:41;;;;;;;5.05;2.30;;;;;;;14.07;100.00;103018.50;5204616;28;20028;-73
2022/11/11 11:34:12;;;;;;;3.88;2.25;;;;;;;14.25;100.00;103021.38;5204751;28;20032;-73
2022/11/11 11:36:43;;;;;;;4.90;2.13;;;;;;;14.37;100.00;103016.72;5205121;28;20029;-73
2022/11/11 11:39:31;;;;;;;3.85;2.20;;;;;;;14.38;100.00;103018.44;5204047;28;20061;-73
2022/11/11 11:42:01;;;;;;;5.15;2.25;;;;;;;14.37;100.00;103019.44;5205226;28;20045;-73
2022/11/11 11:44:34;;;;;;;4.70;2.08;;;;;;;14.53;100.00;103016.22;5204808;28;20025;-73
2022/11/11 11:47:29;;;;;;;7.45;2.20;;;;;;;14.58;100.00;103012.09;5203949;28;20047;-74
2022/11/11 11:50:30;;;;;;;2.85;1.80;;;;;;;14.66;100.00;103016.78;5204579;28;20024;-73
2022/11/11 11:53:09;;;;;;;4.63;1.70;;;;;;;14.62;100.00;103012.69;5204812;28;20033;-74
2022/11/11 11:55:45;;;;;;;4.63;2.10;;;;;;;14.45;100.00;103016.88;5204377;28;20067;-74
2022/11/11 11:58:39;;;;;;;4.25;2.10;;;;;;;14.31;100.00;103007.34;5203887;28;20433;-74
2022/11/11 12:01:23;;;;;;;4.80;1.88;;;;;;;14.10;100.00;103015.50;5204330;28;20132;-74
2022/11/11 12:04:37;;;;;;;3.83;1.83;;;;;;;14.08;100.00;103011.25;5204120;28;20494;-74
2022/11/11 12:07:12;;;;;;;4.32;1.77;;;;;;;14.17;100.00;103015.81;5203366;28;20044;-74
2022/11/11 12:09:51;;;;;;;4.50;1.90;;;;;;;14.08;100.00;103008.53;5203994;28;20029;-74
2022/11/11 12:12:24;;;;;;;2.78;1.70;;;;;;;14.07;100.00;103017.63;5204174;28;20051;-74
2022/11/11 12:15:17;;;;;;;4.22;1.45;;;;;;;13.89;100.00;103018.25;5204277;28;20025;-74
2022/11/11 12:18:07;;;;;;;5.13;1.80;;;;;;;13.81;100.00;103019.94;5203357;28;20104;-74
2022/11/11 12:20:47;;;;;;;5.43;1.92;;;;;;;13.93;100.00;103013.47;5203988;28;20368;-74
2022/11/11 12:23:29;;;;;;;6.28;1.83;;;;;;;13.99;100.00;103007.50;5204355;28;20032;-74
2022/11/11 12:26:03;;;;;;;2.95;1.30;;;;;;;13.94;100.00;103002.50;5190418;28;20399;-74
2022/11/11 12:28:42;;;;;;;2.50;1.80;;;;;;;14.04;100.00;102997.16;5191932;28;20032;-74
2022/11/11 12:31:12;;;;;;;4.90;1.67;;;;;;;13.95;100.00;102992.56;5203116;28;20467;-74
2022/11/11 12:34:01;;;;;;;3.75;1.73;;;;;;;13.84;100.00;102990.84;5204126;28;20037;-74
2022/11/11 12:36:42;;;;;;;2.83;1.42;;;;;;;13.75;100.00;102994.34;5203343;28;20026;-74
2022/11/11 12:39:39;;;;;;;5.85;1.60;;;;;;;13.80;100.00;102988.53;5200726;28;20168;-74
2022/11/11 12:42:37;;;;;;;2.33;1.30;;;;;;;13.94;100.00;102990.88;5203575;28;20049;-74
2022/11/11 12:45:22;;;;;;;4.82;1.90;;;;;;;14.11;100.00;102984.84;5202584;28;20022;-74
2022/11/11 12:48:34;;;;;;;3.70;1.52;;;;;;;14.16;100.00;102992.53;5202058;28;20056;-73
2022/11/11 12:51:25;;;;;;;4.07;1.67;;;;;;;14.24;100.00;102984.56;5202806;28;20033;-73
2022/11/11 12:54:15;;;;;;;3.50;1.30;;;;;;;14.17;100.00;102986.97;5203544;28;20038;-73
2022/11/11 12:57:08;;;;;;;7.68;2.03;;;;;;;14.10;100.00;102987.66;5203824;28;20022;-73